Current Weather

Henderson Exec

Las Vegas, Nevada (KHND)

Report from: Thursday, July 18, 2024 5:56 AM PDT
Current time: Thursday, July 18, 2024 6:51 AM PDT

Nearby weather – Weather history – Daily summaries
Weather forecast

Temperature31.1°C (88.0°F)
Heat index29.3°C (84.7°F)
Dew point7.2°C (45.0°F)
Winds 8 kts (4.1 m/s, 9.2 mph) South-Southwest (200°)
Visibility10 mi. (16.1 km)
Clouds Sky clear
Altimeter29.98 in.Hg (1015 mB)
Relative humidity23 %
Density altitude1,989 ft. (606 m)
Sea-level pressure101.3 kPa (1013 mB, 29.92 in.Hg)
Remarks Fully automated report
Automated weather observing station with precipitation discriminator
Flight conditions Visual Meteorological Conditions
Raw dataKHND 181256Z AUTO 20008KT 10SM CLR 31/07 A2998 RMK AO2 SLP133 T03110072
An error has occurred. This application may no longer respond until reloaded. Reload 🗙